Time;durP1;ratioP1;P1;durP2;ratioP2;P2;SDS_P1;SDS_P2;PMS_P1;PMS_P2;Temp;Humidity;BMP_temperature;BMP_pressure;BME280_temperature;BME280_humidity;BME280_pressure;Samples;Min_cycle;Max_cycle;Signal;HPM_P1;HPM_P2
2022/09/07 00:00:53;;;;;;;5.07;3.03;;;;;;;19.63;100.00;99980.41;5062174;28;20541;-50
2022/09/07 00:03:20;;;;;;;2.03;1.93;;;;;;;19.85;100.00;99991.38;5039260;28;20975;-50
2022/09/07 00:05:50;;;;;;;3.37;1.87;;;;;;;19.71;100.00;99995.06;5037261;28;20458;-49
2022/09/07 00:08:21;;;;;;;10.83;2.13;;;;;;;19.65;100.00;100022.47;5039826;28;20487;-49
2022/09/07 00:11:10;;;;;;;1.70;1.60;;;;;;;19.37;100.00;100061.25;5036857;28;20458;-50
2022/09/07 00:13:38;;;;;;;2.23;2.13;;;;;;;19.64;100.00;100047.72;5037489;28;20553;-49
2022/09/07 00:16:08;;;;;;;2.53;2.33;;;;;;;19.75;100.00;100053.22;5043125;28;20814;-50
2022/09/07 00:18:35;;;;;;;4.97;1.10;;;;;;;20.10;100.00;100049.84;5036634;28;20540;-50
2022/09/07 00:21:09;;;;;;;5.97;1.90;;;;;;;19.55;100.00;100039.41;5042922;28;20455;-50
2022/09/07 00:23:38;;;;;;;1.20;1.10;;;;;;;19.02;100.00;100028.59;5043523;28;20459;-50
2022/09/07 00:26:10;;;;;;;2.30;1.93;;;;;;;18.82;100.00;99999.47;5039350;28;20467;-50
2022/09/07 00:28:37;;;;;;;1.03;1.00;;;;;;;18.75;100.00;99988.22;5046726;28;20495;-50
2022/09/07 00:31:12;;;;;;;1.97;1.73;;;;;;;18.80;100.00;99969.97;5040585;28;20454;-50
2022/09/07 00:33:39;;;;;;;4.40;2.23;;;;;;;18.56;100.00;99960.78;5037185;28;20508;-51
2022/09/07 00:36:06;;;;;;;17.83;1.40;;;;;;;18.68;100.00;99962.69;5037828;28;21132;-51
2022/09/07 00:38:33;;;;;;;1.27;0.90;;;;;;;19.11;100.00;99987.56;5043438;28;20451;-50
2022/09/07 00:41:00;;;;;;;1.50;1.40;;;;;;;19.21;100.00;99987.81;5041635;28;20826;-50
2022/09/07 00:43:36;;;;;;;1.00;0.90;;;;;;;19.40;100.00;99946.94;5036348;28;20543;-50
2022/09/07 00:46:05;;;;;;;1.27;1.17;;;;;;;19.28;100.00;99935.19;5036288;28;20479;-51
2022/09/07 00:48:32;;;;;;;1.43;1.33;;;;;;;19.43;100.00;99922.47;5036906;28;20494;-50
2022/09/07 00:51:03;;;;;;;9.27;1.23;;;;;;;19.25;100.00;99908.47;5036263;28;20458;-51
2022/09/07 00:53:35;;;;;;;2.77;1.20;;;;;;;19.23;100.00;99889.72;5041950;28;20447;-51
2022/09/07 00:56:03;;;;;;;2.90;2.27;;;;;;;19.36;100.00;99859.19;5043136;28;20471;-50
2022/09/07 00:58:30;;;;;;;1.27;1.17;;;;;;;18.88;100.00;99845.53;5038414;28;20462;-50
2022/09/07 01:00:57;;;;;;;2.03;1.87;;;;;;;19.14;100.00;99854.47;5046833;28;20496;-51
2022/09/07 01:03:28;;;;;;;1.20;1.10;;;;;;;19.20;100.00;99846.81;5038670;28;20458;-50
2022/09/07 01:06:17;;;;;;;4.60;2.00;;;;;;;19.27;100.00;99851.75;5035806;28;20470;-50
2022/09/07 01:08:46;;;;;;;1.67;1.57;;;;;;;19.43;100.00;99860.47;5036519;28;20487;-50
2022/09/07 01:11:17;;;;;;;1.53;1.43;;;;;;;19.37;100.00;99885.19;5035928;28;20462;-51
2022/09/07 01:13:45;;;;;;;1.10;1.00;;;;;;;19.93;100.00;99934.19;5035376;28;20459;-51
2022/09/07 01:16:44;;;;;;;1.80;1.70;;;;;;;19.60;100.00;99970.72;5043436;28;20578;-51
2022/09/07 01:19:33;;;;;;;1.00;0.90;;;;;;;19.19;100.00;99965.50;5010307;28;20458;-50
2022/09/07 01:22:15;;;;;;;1.60;1.50;;;;;;;19.27;100.00;99936.16;5041783;28;20451;-50
2022/09/07 01:25:08;;;;;;;2.70;2.03;;;;;;;19.26;100.00;99945.22;5040262;28;20455;-51
2022/09/07 01:27:56;;;;;;;2.20;1.70;;;;;;;18.90;100.00;99938.72;5028808;28;20476;-51
2022/09/07 01:30:23;;;;;;;24.47;1.37;;;;;;;18.85;100.00;99938.19;5042519;28;20455;-51
2022/09/07 01:33:08;;;;;;;14.73;1.30;;;;;;;19.04;100.00;99928.81;5040106;28;20465;-50
2022/09/07 01:35:53;;;;;;;2.10;1.23;;;;;;;19.12;100.00;99891.44;5035973;28;20454;-50
2022/09/07 01:38:28;;;;;;;2.93;1.80;;;;;;;18.82;100.00;99897.13;5035759;28;20447;-50
2022/09/07 01:41:08;;;;;;;13.87;2.77;;;;;;;18.97;100.00;99909.53;5038058;28;21027;-51
2022/09/07 01:44:12;;;;;;;6.67;2.30;;;;;;;19.31;100.00;99988.88;5042327;28;20455;-51
2022/09/07 01:46:48;;;;;;;8.43;1.43;;;;;;;19.15;100.00;99948.66;5025708;28;20496;-51
2022/09/07 01:49:27;;;;;;;1.50;1.40;;;;;;;19.15;100.00;99945.97;5042301;28;20895;-51
2022/09/07 01:52:02;;;;;;;3.13;1.73;;;;;;;19.33;100.00;99953.75;5029427;28;20842;-51
2022/09/07 01:54:33;;;;;;;5.60;1.70;;;;;;;19.29;100.00;99946.84;5042217;28;20452;-51
2022/09/07 01:57:05;;;;;;;1.30;1.20;;;;;;;19.38;100.00;99932.72;5038837;28;20471;-51
2022/09/07 01:59:36;;;;;;;2.90;0.93;;;;;;;19.21;100.00;99940.16;5039101;28;20434;-51
2022/09/07 02:02:08;;;;;;;1.47;1.37;;;;;;;19.51;100.00;99949.75;5045859;28;20945;-51
2022/09/07 02:04:46;;;;;;;2.23;1.60;;;;;;;19.06;100.00;99935.84;5042190;28;20454;-50
2022/09/07 02:07:16;;;;;;;11.70;2.10;;;;;;;18.70;100.00;99932.97;5041792;28;20991;-50
2022/09/07 02:10:07;;;;;;;4.60;1.30;;;;;;;18.53;100.00;99940.34;5036641;28;21081;-51
2022/09/07 02:12:40;;;;;;;2.17;2.07;;;;;;;18.58;100.00;99927.41;5035067;28;20971;-50
2022/09/07 02:15:14;;;;;;;3.30;2.00;;;;;;;18.81;100.00;99933.13;5036144;28;20451;-52
2022/09/07 02:17:44;;;;;;;1.93;1.33;;;;;;;19.18;100.00;99947.56;5035232;28;20479;-51
2022/09/07 02:20:18;;;;;;;1.80;1.70;;;;;;;18.66;100.00;99936.84;5042193;28;20457;-51
2022/09/07 02:22:49;;;;;;;1.40;1.30;;;;;;;18.68;100.00;99933.09;5037435;28;20455;-50
2022/09/07 02:25:23;;;;;;;5.60;1.80;;;;;;;18.86;100.00;99926.44;5034779;28;20823;-50
2022/09/07 02:27:56;;;;;;;2.50;2.30;;;;;;;19.26;100.00;99917.41;5037690;28;20475;-51
2022/09/07 02:30:22;;;;;;;1.97;1.87;;;;;;;19.09;100.00;99918.59;5042301;28;20448;-50
2022/09/07 02:32:49;;;;;;;2.77;2.10;;;;;;;19.10;100.00;99920.31;5040448;28;20462;-52
2022/09/07 02:35:16;;;;;;;2.90;1.60;;;;;;;19.16;100.00;99911.78;5035259;28;20477;-50
2022/09/07 02:37:44;;;;;;;1.43;1.33;;;;;;;19.32;100.00;99911.56;5036453;28;20475;-51
2022/09/07 02:40:11;;;;;;;2.70;2.07;;;;;;;19.05;100.00;99904.50;5043445;28;20971;-51
2022/09/07 02:42:38;;;;;;;1.70;1.30;;;;;;;19.08;100.00;99903.41;5044325;28;20521;-51
2022/09/07 02:45:08;;;;;;;5.13;1.50;;;;;;;19.34;100.00;99902.44;5038485;28;20451;-51
2022/09/07 02:47:43;;;;;;;2.30;2.10;;;;;;;19.36;100.00;99908.56;5051938;28;20482;-51
2022/09/07 02:50:16;;;;;;;2.33;1.80;;;;;;;19.32;100.00;99908.88;5040116;28;20499;-50
2022/09/07 02:53:04;;;;;;;1.20;1.10;;;;;;;19.32;100.00;99916.97;5038689;28;20463;-49
2022/09/07 02:55:34;;;;;;;3.93;1.77;;;;;;;19.27;100.00;99924.53;5039747;28;20466;-49
2022/09/07 02:58:16;;;;;;;2.40;2.30;;;;;;;19.19;100.00;99917.00;5045600;28;20842;-48
2022/09/07 03:01:09;;;;;;;4.63;1.33;;;;;;;19.32;100.00;99916.97;5059828;28;20833;-50
2022/09/07 03:03:53;;;;;;;2.40;2.20;;;;;;;19.41;100.00;99916.31;5042823;28;20474;-49
2022/09/07 03:06:52;;;;;;;5.60;2.30;;;;;;;19.33;100.00;99910.63;5035743;28;20483;-49
2022/09/07 03:09:24;;;;;;;1.43;1.33;;;;;;;19.42;100.00;99907.25;5032928;28;20501;-49
2022/09/07 03:11:51;;;;;;;1.17;1.07;;;;;;;19.35;100.00;99900.59;5041066;28;20474;-49
2022/09/07 03:14:23;;;;;;;1.60;1.30;;;;;;;19.92;100.00;99898.25;5045796;28;20485;-49
2022/09/07 03:16:52;;;;;;;2.60;1.80;;;;;;;19.67;100.00;99899.19;5044301;28;20536;-50
2022/09/07 03:19:18;;;;;;;1.67;1.40;;;;;;;19.38;100.00;99905.75;5038632;28;20450;-49
2022/09/07 03:21:45;;;;;;;5.90;2.70;;;;;;;19.30;100.00;99911.69;5039308;28;20463;-49
2022/09/07 03:24:12;;;;;;;9.30;1.83;;;;;;;19.52;100.00;99924.50;5045213;28;20467;-48
2022/09/07 03:26:42;;;;;;;2.10;1.80;;;;;;;19.32;100.00;99917.81;5045104;28;20470;-50
2022/09/07 03:29:08;;;;;;;11.40;3.03;;;;;;;19.35;100.00;99923.03;5031606;28;20495;-49
2022/09/07 03:31:35;;;;;;;1.10;1.00;;;;;;;19.31;100.00;99928.72;5045311;28;20455;-50
2022/09/07 03:34:02;;;;;;;1.93;1.73;;;;;;;19.17;100.00;99925.16;5038923;28;20451;-49
2022/09/07 03:36:29;;;;;;;2.13;2.03;;;;;;;19.26;100.00;99915.56;5037772;28;20479;-51
2022/09/07 03:38:58;;;;;;;1.10;1.00;;;;;;;19.16;100.00;99912.66;5044141;28;20454;-49
2022/09/07 03:41:25;;;;;;;2.13;2.03;;;;;;;19.05;100.00;99907.19;5044645;28;20455;-50
2022/09/07 03:43:52;;;;;;;1.40;1.30;;;;;;;19.06;100.00;99917.00;5038932;28;20450;-50
2022/09/07 03:46:19;;;;;;;6.70;1.70;;;;;;;19.06;100.00;99918.81;5037964;28;20491;-49
2022/09/07 03:48:48;;;;;;;3.17;1.57;;;;;;;19.03;100.00;99919.00;5038825;28;20494;-49
2022/09/07 03:51:16;;;;;;;2.80;2.60;;;;;;;18.95;100.00;99924.94;5035852;28;20459;-51
2022/09/07 03:53:45;;;;;;;7.30;2.70;;;;;;;18.91;100.00;99920.72;5042548;28;20462;-51
2022/09/07 03:56:23;;;;;;;3.50;1.53;;;;;;;18.63;100.00;99917.22;5043855;28;20506;-50
2022/09/07 03:58:52;;;;;;;3.53;1.87;;;;;;;18.46;100.00;99928.22;5041125;28;20443;-50
2022/09/07 04:01:22;;;;;;;2.50;2.30;;;;;;;18.32;100.00;99930.97;5059184;28;20448;-50
2022/09/07 04:03:49;;;;;;;1.50;1.40;;;;;;;18.32;100.00;99931.84;5045503;28;20478;-49
2022/09/07 04:06:16;;;;;;;2.30;2.20;;;;;;;18.31;100.00;99932.81;5037172;28;20504;-49
2022/09/07 04:08:43;;;;;;;3.10;2.47;;;;;;;18.46;100.00;99928.22;5037583;28;20491;-51
2022/09/07 04:11:13;;;;;;;2.27;2.07;;;;;;;18.45;100.00;99931.91;5044471;28;20456;-50
2022/09/07 04:13:40;;;;;;;2.73;1.60;;;;;;;18.53;100.00;99926.88;5044044;28;20462;-51
2022/09/07 04:16:11;;;;;;;1.43;1.33;;;;;;;18.71;100.00;99929.31;5037253;28;20475;-50
2022/09/07 04:18:37;;;;;;;2.20;2.10;;;;;;;18.72;100.00;99931.91;5037044;28;20464;-50
2022/09/07 04:21:04;;;;;;;3.23;1.50;;;;;;;18.86;100.00;99926.44;5042634;28;20458;-50
2022/09/07 04:23:31;;;;;;;2.80;2.63;;;;;;;18.75;100.00;99923.59;5043547;28;20457;-50
2022/09/07 04:25:58;;;;;;;8.90;2.57;;;;;;;18.60;100.00;99920.09;5038031;28;20443;-49
2022/09/07 04:28:24;;;;;;;2.97;2.33;;;;;;;18.24;100.00;99918.06;5049140;28;20454;-49
2022/09/07 04:30:51;;;;;;;1.37;1.27;;;;;;;18.40;100.00;99928.66;5037672;28;20545;-49
2022/09/07 04:33:17;;;;;;;1.43;1.33;;;;;;;18.92;100.00;99928.72;5036625;28;20486;-51
2022/09/07 04:35:44;;;;;;;2.10;1.90;;;;;;;19.09;100.00;99926.69;5041854;28;20462;-49
2022/09/07 04:38:13;;;;;;;1.70;1.60;;;;;;;18.97;100.00;99930.22;5043483;28;20447;-51
2022/09/07 04:40:40;;;;;;;2.70;2.60;;;;;;;18.85;100.00;99918.47;5038464;28;20461;-49
2022/09/07 04:43:08;;;;;;;1.93;1.83;;;;;;;18.86;100.00;99914.78;5036335;28;20452;-50
2022/09/07 04:45:35;;;;;;;9.67;2.33;;;;;;;18.85;100.00;99918.47;5040631;28;20456;-50
2022/09/07 04:48:03;;;;;;;4.90;2.53;;;;;;;18.66;100.00;99909.94;5032749;28;21011;-50
2022/09/07 04:50:30;;;;;;;3.67;1.70;;;;;;;18.63;100.00;99902.84;5040037;28;20491;-49
2022/09/07 04:52:56;;;;;;;3.43;1.97;;;;;;;18.61;100.00;99904.78;5042957;28;20452;-50
2022/09/07 04:55:23;;;;;;;1.87;1.77;;;;;;;18.69;100.00;99909.72;5039406;28;20454;-50
2022/09/07 04:57:50;;;;;;;1.70;1.60;;;;;;;18.65;100.00;99914.44;5035863;28;20470;-49
2022/09/07 05:00:16;;;;;;;3.13;2.30;;;;;;;18.55;100.00;99911.47;5059621;28;20446;-50
2022/09/07 05:02:43;;;;;;;2.30;2.10;;;;;;;18.54;100.00;99919.66;5038787;28;20451;-48
2022/09/07 05:05:09;;;;;;;2.90;2.70;;;;;;;18.54;100.00;99925.91;5039098;28;20448;-50
2022/09/07 05:07:36;;;;;;;2.47;2.27;;;;;;;18.59;100.00;99922.88;5042750;28;20480;-50
2022/09/07 05:10:03;;;;;;;7.40;1.80;;;;;;;18.63;100.00;99917.22;5040020;28;20490;-50
2022/09/07 05:12:29;;;;;;;1.97;1.77;;;;;;;18.68;100.00;99926.84;5035743;28;20451;-51
2022/09/07 05:14:56;;;;;;;2.90;2.70;;;;;;;18.59;100.00;99939.03;5038520;28;20451;-51
2022/09/07 05:17:23;;;;;;;1.80;1.70;;;;;;;18.51;100.00;99936.03;5042426;28;20579;-51
2022/09/07 05:19:49;;;;;;;2.57;2.37;;;;;;;18.48;100.00;99934.38;5040242;28;20453;-50
2022/09/07 05:22:16;;;;;;;2.23;2.03;;;;;;;18.55;100.00;99938.41;5035801;28;20450;-50
2022/09/07 05:24:42;;;;;;;1.87;1.77;;;;;;;18.54;100.00;99942.06;5038273;28;20452;-50
2022/09/07 05:27:09;;;;;;;5.10;2.20;;;;;;;18.64;100.00;99945.03;5024566;28;20476;-49
2022/09/07 05:29:35;;;;;;;1.83;1.70;;;;;;;18.68;100.00;99943.84;5040150;28;20486;-50
2022/09/07 05:32:22;;;;;;;4.30;2.30;;;;;;;18.92;100.00;99954.78;5029065;28;20452;-50
2022/09/07 05:34:49;;;;;;;1.80;1.70;;;;;;;19.11;100.00;99955.25;5042572;28;20530;-51
2022/09/07 05:37:18;;;;;;;1.97;1.77;;;;;;;19.36;100.00;99950.84;5036715;28;20474;-50
2022/09/07 05:39:45;;;;;;;13.80;3.30;;;;;;;19.47;100.00;99959.91;5035588;28;20452;-51
2022/09/07 05:42:12;;;;;;;3.13;2.63;;;;;;;19.46;100.00;99968.06;5040812;28;20877;-50
2022/09/07 05:44:38;;;;;;;2.33;2.23;;;;;;;19.61;100.00;99971.59;5042505;28;20454;-49
2022/09/07 05:47:08;;;;;;;2.20;1.90;;;;;;;19.55;100.00;99962.06;5029478;28;20487;-50
2022/09/07 05:49:34;;;;;;;4.30;3.17;;;;;;;19.67;100.00;99966.59;5042121;28;20522;-50
2022/09/07 05:52:01;;;;;;;2.67;2.57;;;;;;;19.57;100.00;99967.34;5037852;28;20992;-50
2022/09/07 05:54:27;;;;;;;2.80;2.70;;;;;;;19.66;100.00;99962.19;5035530;28;20984;-51
2022/09/07 05:56:54;;;;;;;4.30;2.60;;;;;;;19.63;100.00;99967.78;5039270;28;20482;-49
2022/09/07 05:59:20;;;;;;;7.17;2.97;;;;;;;19.68;100.00;99965.63;5046772;28;21008;-51
2022/09/07 06:01:47;;;;;;;1.97;1.87;;;;;;;19.73;100.00;99970.69;5050280;28;20451;-49
2022/09/07 06:04:13;;;;;;;6.37;3.17;;;;;;;19.87;100.00;99975.09;5042542;28;20458;-50
2022/09/07 06:06:40;;;;;;;2.73;1.97;;;;;;;19.90;100.00;99986.53;5037762;28;21071;-49
2022/09/07 06:09:06;;;;;;;3.33;3.03;;;;;;;19.87;100.00;99983.16;5034997;28;20873;-50
2022/09/07 06:11:33;;;;;;;3.90;3.50;;;;;;;20.02;100.00;99985.66;5039481;28;20910;-50
2022/09/07 06:13:59;;;;;;;3.23;2.90;;;;;;;20.15;100.00;99985.63;5041724;28;21070;-50
2022/09/07 06:16:26;;;;;;;3.73;2.33;;;;;;;20.15;100.00;99982.94;5042359;28;20833;-51
2022/09/07 06:18:53;;;;;;;2.90;2.80;;;;;;;20.19;100.00;99991.66;5039318;28;20455;-49
2022/09/07 06:21:21;;;;;;;26.37;3.27;;;;;;;20.30;100.00;99992.59;5043204;28;20462;-51
2022/09/07 06:23:49;;;;;;;7.27;3.80;;;;;;;20.21;100.00;99998.66;5045675;28;20457;-50
2022/09/07 06:26:16;;;;;;;4.10;3.00;;;;;;;20.10;100.00;99996.72;5042443;28;20477;-50
2022/09/07 06:28:45;;;;;;;2.30;1.90;;;;;;;20.14;100.00;99997.38;5039143;28;20454;-51
2022/09/07 06:31:20;;;;;;;4.50;2.90;;;;;;;20.19;100.00;99994.34;5041209;28;20554;-51
2022/09/07 06:33:47;;;;;;;2.10;2.00;;;;;;;20.29;100.00;99988.19;5046159;28;20457;-51
2022/09/07 06:36:17;;;;;;;7.00;2.93;;;;;;;20.31;100.00;99990.75;5044412;28;20481;-52
2022/09/07 06:38:44;;;;;;;2.50;2.40;;;;;;;20.39;100.00;99980.22;5038605;28;20450;-49
2022/09/07 06:41:36;;;;;;;3.10;2.90;;;;;;;20.30;100.00;99989.91;5039981;28;20447;-50
2022/09/07 06:44:23;;;;;;;2.30;2.20;;;;;;;20.47;100.00;99990.50;5051770;28;20528;-50
2022/09/07 06:46:49;;;;;;;2.83;2.63;;;;;;;20.40;100.00;99993.63;5033847;28;20562;-49
2022/09/07 06:49:31;;;;;;;2.33;2.10;;;;;;;20.40;100.00;99998.16;5045483;28;20494;-50
2022/09/07 06:51:57;;;;;;;2.37;2.20;;;;;;;20.41;100.00;99989.06;5040143;28;20478;-52
2022/09/07 06:54:24;;;;;;;6.30;1.90;;;;;;;20.61;100.00;99984.94;5038583;28;20457;-50
2022/09/07 06:57:10;;;;;;;5.57;2.17;;;;;;;20.79;100.00;99991.66;5040779;28;20482;-51
2022/09/07 06:59:37;;;;;;;2.57;2.37;;;;;;;21.10;100.00;99987.47;5053951;28;20446;-50
2022/09/07 07:02:05;;;;;;;4.27;2.40;;;;;;;21.10;100.00;99992.88;5048420;28;20835;-52
2022/09/07 07:04:32;;;;;;;2.10;2.00;;;;;;;20.92;100.00;99992.44;5045013;28;20932;-50
2022/09/07 07:07:09;;;;;;;6.97;4.33;;;;;;;20.62;100.00;100000.16;5044882;28;20478;-50
2022/09/07 07:09:35;;;;;;;2.07;1.97;;;;;;;20.65;100.00;99998.09;5038587;28;20998;-51
2022/09/07 07:12:02;;;;;;;2.40;2.20;;;;;;;21.03;100.00;100009.69;5038527;28;20456;-49
2022/09/07 07:14:28;;;;;;;3.23;2.93;;;;;;;20.94;100.00;100005.84;5044923;28;20539;-51
2022/09/07 07:17:00;;;;;;;24.47;3.27;;;;;;;21.09;100.00;100006.50;5044904;28;20915;-48
2022/09/07 07:19:27;;;;;;;2.50;2.40;;;;;;;21.64;100.00;100008.50;5039425;28;20450;-49
2022/09/07 07:21:53;;;;;;;3.87;2.43;;;;;;;21.23;100.00;100009.84;5038147;28;20451;-49
2022/09/07 07:24:40;;;;;;;2.20;2.10;;;;;;;21.04;100.00;100006.88;5040376;28;20455;-48
2022/09/07 07:27:06;;;;;;;2.50;2.30;;;;;;;21.47;100.00;100008.97;5044567;28;20471;-49
2022/09/07 07:29:33;;;;;;;9.27;2.67;;;;;;;21.50;100.00;100009.59;5042366;28;20490;-51
2022/09/07 07:31:59;;;;;;;1.60;1.50;;;;;;;21.32;100.00;99999.34;5038118;28;20451;-49
2022/09/07 07:34:26;;;;;;;2.77;2.57;;;;;;;21.32;100.00;100002.06;5039967;28;20459;-48
2022/09/07 07:36:52;;;;;;;2.03;1.93;;;;;;;21.36;100.00;100009.81;5044603;28;20988;-50
2022/09/07 07:39:19;;;;;;;4.33;2.20;;;;;;;21.55;100.00;100010.09;5042677;28;20450;-50
2022/09/07 07:42:05;;;;;;;9.93;2.03;;;;;;;21.45;100.00;100010.94;5031170;28;20549;-48
2022/09/07 07:44:32;;;;;;;1.40;1.30;;;;;;;21.54;100.00;100002.97;5044010;28;20458;-49
2022/09/07 07:46:59;;;;;;;2.07;1.97;;;;;;;21.69;100.00;100002.75;5031246;28;20487;-50
2022/09/07 07:49:25;;;;;;;9.53;2.27;;;;;;;21.76;100.00;100006.69;5044368;28;20980;-49
2022/09/07 07:51:55;;;;;;;2.23;2.00;;;;;;;21.72;100.00;100014.19;5038879;28;20457;-50
2022/09/07 07:54:42;;;;;;;1.90;1.70;;;;;;;22.27;100.00;100009.78;5037250;28;20540;-51
2022/09/07 07:57:09;;;;;;;10.43;1.90;;;;;;;21.92;100.00;100018.00;5039958;28;20479;-50
2022/09/07 07:59:35;;;;;;;2.53;2.33;;;;;;;21.78;100.00;100013.69;5053205;28;20840;-49
2022/09/07 08:02:03;;;;;;;2.43;1.57;;;;;;;22.11;100.00;100007.47;5048027;28;20466;-50
2022/09/07 08:04:32;;;;;;;16.53;2.37;;;;;;;22.18;100.00;100022.22;5043893;28;20538;-50
2022/09/07 08:06:58;;;;;;;1.57;1.47;;;;;;;22.46;100.00;100015.41;5042298;28;20490;-50
2022/09/07 08:09:25;;;;;;;1.90;1.80;;;;;;;22.20;100.00;100013.94;5048865;28;20457;-50
2022/09/07 08:11:52;;;;;;;7.93;2.43;;;;;;;22.06;100.00;100004.25;5038757;28;20455;-51
2022/09/07 08:14:18;;;;;;;5.27;2.33;;;;;;;22.31;100.00;100000.41;5043433;28;20510;-51
2022/09/07 08:16:45;;;;;;;2.60;2.30;;;;;;;22.70;100.00;100012.50;5042335;28;20462;-49
2022/09/07 08:19:11;;;;;;;2.13;1.90;;;;;;;22.83;100.00;100011.53;5036862;28;20432;-52
2022/09/07 08:21:38;;;;;;;1.60;1.50;;;;;;;22.84;100.00;100013.22;5038250;28;20451;-51
2022/09/07 08:24:04;;;;;;;6.17;1.77;;;;;;;22.58;100.00;100018.94;5043481;28;20923;-52
2022/09/07 08:26:30;;;;;;;1.20;1.10;;;;;;;22.85;100.00;100026.66;5042463;28;21031;-50
2022/09/07 08:28:57;;;;;;;1.53;1.43;;;;;;;23.25;100.00;100026.84;5037098;28;20455;-51
2022/09/07 08:31:23;;;;;;;9.97;1.93;;;;;;;23.34;100.00;100030.66;5049075;28;21209;-49
2022/09/07 08:33:50;;;;;;;13.80;1.87;;;;;;;23.37;100.00;100032.22;5036875;28;20460;-51
2022/09/07 08:36:19;;;;;;;1.90;1.80;;;;;;;23.84;100.00;100030.81;5037571;28;20844;-51
2022/09/07 08:38:46;;;;;;;1.80;1.67;;;;;;;23.58;100.00;100033.13;5042894;28;20452;-51
2022/09/07 08:41:42;;;;;;;1.20;1.10;;;;;;;24.10;99.10;100025.81;5043038;28;21185;-51
2022/09/07 08:44:15;;;;;;;1.70;1.60;;;;;;;24.15;98.46;100040.72;5021402;28;20560;-51
2022/09/07 08:46:47;;;;;;;1.13;1.03;;;;;;;24.47;96.06;100039.72;5043240;28;20996;-51
2022/09/07 08:49:30;;;;;;;1.87;1.47;;;;;;;24.52;96.46;100049.16;5042841;28;20549;-53
2022/09/07 08:52:02;;;;;;;1.20;1.10;;;;;;;24.20;94.86;100045.72;5029607;28;20945;-52
2022/09/07 08:54:29;;;;;;;3.90;2.80;;;;;;;24.06;97.17;100049.66;5043118;28;20475;-52
2022/09/07 08:57:01;;;;;;;2.00;1.90;;;;;;;24.36;98.20;100047.97;5038197;28;21012;-53
2022/09/07 08:59:59;;;;;;;1.63;1.53;;;;;;;25.00;93.50;100058.41;5043097;28;20498;-52
2022/09/07 09:02:26;;;;;;;1.77;1.67;;;;;;;24.84;93.58;100053.53;5039470;28;20902;-53
2022/09/07 09:04:54;;;;;;;1.70;1.60;;;;;;;24.81;93.74;100053.81;5041607;28;20456;-53
2022/09/07 09:07:46;;;;;;;2.93;1.87;;;;;;;24.29;94.75;100054.94;5042628;28;20979;-53
2022/09/07 09:10:30;;;;;;;1.40;1.23;;;;;;;24.79;93.69;100047.63;5041454;28;20538;-53
2022/09/07 09:13:09;;;;;;;7.40;1.70;;;;;;;24.99;92.24;100052.13;5029185;28;20912;-53
2022/09/07 09:15:57;;;;;;;2.37;1.97;;;;;;;24.87;92.49;100057.81;5042517;28;20451;-53
2022/09/07 09:18:44;;;;;;;5.43;1.30;;;;;;;24.59;94.73;100046.75;5036652;28;20976;-53
2022/09/07 09:21:17;;;;;;;1.40;1.27;;;;;;;24.56;94.79;100048.91;5037471;28;20451;-52
2022/09/07 09:23:48;;;;;;;2.30;1.20;;;;;;;24.74;93.08;100050.78;5036133;28;20508;-55
2022/09/07 09:26:30;;;;;;;1.53;1.43;;;;;;;24.90;92.14;100050.22;5049252;28;20445;-53
2022/09/07 09:28:56;;;;;;;1.30;1.20;;;;;;;24.93;90.88;100047.22;5047601;28;20921;-53
2022/09/07 09:31:34;;;;;;;1.43;1.33;;;;;;;25.07;89.04;100040.53;5036443;28;20520;-53
2022/09/07 09:34:03;;;;;;;2.20;2.00;;;;;;;25.21;88.44;100039.25;5036843;28;20504;-53
2022/09/07 09:36:33;;;;;;;1.30;1.10;;;;;;;25.45;89.36;100044.25;5035551;28;20476;-53
2022/09/07 09:39:00;;;;;;;1.93;1.60;;;;;;;25.46;91.26;100041.38;5040893;28;20451;-52
2022/09/07 09:41:36;;;;;;;1.40;1.23;;;;;;;25.15;91.79;100037.97;5043007;28;20481;-52
2022/09/07 09:44:02;;;;;;;1.97;1.87;;;;;;;25.44;91.70;100042.53;5038495;28;20490;-52
2022/09/07 09:46:36;;;;;;;19.47;2.23;;;;;;;25.52;87.96;100029.94;5033440;28;20887;-53
2022/09/07 09:49:16;;;;;;;4.47;1.60;;;;;;;25.61;90.53;100039.94;5039904;28;20453;-52
2022/09/07 09:51:46;;;;;;;3.00;2.43;;;;;;;25.32;89.59;100039.09;5035501;28;20603;-52
2022/09/07 09:54:38;;;;;;;8.13;1.60;;;;;;;25.53;90.20;100033.50;5035253;28;20489;-52
2022/09/07 09:57:05;;;;;;;1.93;1.83;;;;;;;25.39;90.26;100034.81;5038998;28;20959;-52
2022/09/07 09:59:33;;;;;;;2.63;2.43;;;;;;;25.42;91.13;100033.66;5049290;28;20894;-52
2022/09/07 10:02:31;;;;;;;4.33;3.27;;;;;;;25.86;90.49;100026.72;5041809;28;20513;-53
2022/09/07 10:05:34;;;;;;;1.20;1.10;;;;;;;25.96;87.83;100028.41;5037449;28;20529;-53
2022/09/07 10:08:05;;;;;;;12.33;2.20;;;;;;;25.97;87.47;100023.81;5039501;28;20462;-52
2022/09/07 10:10:31;;;;;;;1.73;1.43;;;;;;;26.52;83.68;100007.50;5042314;28;20511;-53
2022/09/07 10:12:58;;;;;;;2.40;2.30;;;;;;;26.24;87.75;100010.22;5036867;28;20425;-53
2022/09/07 10:15:34;;;;;;;2.23;2.07;;;;;;;25.62;88.34;100002.66;5035067;28;20456;-52
2022/09/07 10:18:17;;;;;;;3.17;2.10;;;;;;;25.68;88.14;100002.09;5038276;28;20447;-53
2022/09/07 10:20:43;;;;;;;5.63;2.40;;;;;;;25.87;88.32;99998.47;5042565;28;20457;-52
2022/09/07 10:23:24;;;;;;;1.70;1.60;;;;;;;26.55;86.09;99988.97;5040556;28;20462;-52
2022/09/07 10:25:50;;;;;;;1.90;1.80;;;;;;;26.70;83.33;99994.75;5028329;28;20481;-53
2022/09/07 10:28:20;;;;;;;2.00;1.90;;;;;;;25.89;87.27;99988.28;5042678;28;20457;-53
2022/09/07 10:31:01;;;;;;;2.93;2.63;;;;;;;26.15;84.66;99992.03;5036196;28;20469;-53
2022/09/07 10:33:57;;;;;;;4.40;2.00;;;;;;;25.85;85.24;99986.88;5035370;28;20943;-52
2022/09/07 10:36:50;;;;;;;2.13;2.03;;;;;;;26.15;84.83;99975.69;5034675;28;20506;-52
2022/09/07 10:39:22;;;;;;;3.80;2.17;;;;;;;26.43;84.55;99983.88;5038094;28;20434;-53
2022/09/07 10:41:58;;;;;;;2.20;2.00;;;;;;;26.64;82.19;99981.75;5041871;28;20912;-53
2022/09/07 10:44:45;;;;;;;3.00;1.40;;;;;;;26.97;81.06;99980.19;5041716;28;20507;-53
2022/09/07 10:47:18;;;;;;;3.17;1.60;;;;;;;26.57;81.75;99975.19;5028956;28;20454;-53
2022/09/07 10:50:13;;;;;;;2.07;1.87;;;;;;;26.47;81.98;99978.00;5041572;28;20945;-53
2022/09/07 10:53:17;;;;;;;1.00;0.90;;;;;;;26.66;81.07;99978.84;5039124;28;20459;-52
2022/09/07 10:56:09;;;;;;;3.50;1.33;;;;;;;26.12;80.09;99973.28;5042232;28;20528;-53
2022/09/07 10:58:57;;;;;;;5.53;1.10;;;;;;;25.85;81.55;99971.38;5038495;28;20426;-52
2022/09/07 11:01:39;;;;;;;2.30;1.33;;;;;;;25.72;80.47;99970.84;5030305;28;20904;-53
2022/09/07 11:04:45;;;;;;;1.50;1.40;;;;;;;25.60;80.50;99972.00;5045428;28;20433;-52
2022/09/07 11:07:39;;;;;;;2.30;1.13;;;;;;;25.80;81.16;99968.25;5045093;28;20453;-53
2022/09/07 11:10:17;;;;;;;2.00;0.90;;;;;;;26.20;80.98;99959.75;5042775;28;20474;-52
2022/09/07 11:12:44;;;;;;;11.73;2.47;;;;;;;26.83;76.11;99967.94;5038316;28;20436;-53
2022/09/07 11:15:11;;;;;;;1.43;0.87;;;;;;;27.19;74.45;99954.31;5039468;28;20434;-53
2022/09/07 11:17:48;;;;;;;1.70;0.90;;;;;;;27.32;75.03;99957.50;5044698;28;20475;-54
2022/09/07 11:20:25;;;;;;;3.27;2.37;;;;;;;27.23;77.84;99955.69;5044794;28;20447;-52
2022/09/07 11:23:14;;;;;;;1.13;1.03;;;;;;;26.91;78.12;99953.53;5040830;28;20449;-53
2022/09/07 11:26:18;;;;;;;1.80;1.60;;;;;;;26.84;79.59;99950.56;5037866;28;20421;-52
2022/09/07 11:28:48;;;;;;;1.13;1.07;;;;;;;26.46;82.17;99945.44;5015645;28;20742;-53
2022/09/07 11:31:43;;;;;;;1.53;1.43;;;;;;;25.91;83.76;99951.72;5043538;28;20552;-53
2022/09/07 11:34:30;;;;;;;1.50;1.40;;;;;;;26.16;83.64;99952.88;5040078;28;20453;-53
2022/09/07 11:37:20;;;;;;;2.30;2.20;;;;;;;26.19;81.95;99955.31;5038161;28;20524;-52
2022/09/07 11:40:11;;;;;;;1.93;1.57;;;;;;;26.27;82.20;99954.53;5037773;28;20877;-53
2022/09/07 11:42:49;;;;;;;2.07;1.87;;;;;;;26.16;81.99;99952.00;5039778;28;21007;-53
2022/09/07 11:45:21;;;;;;;12.03;2.00;;;;;;;26.20;81.92;99948.00;5031101;28;20484;-53
2022/09/07 11:47:55;;;;;;;1.23;1.13;;;;;;;26.18;80.26;99948.16;5032079;28;20877;-53
2022/09/07 11:50:22;;;;;;;1.70;1.50;;;;;;;26.28;78.46;99934.44;5041868;28;20432;-52